sensor_id;sensor_type;location;lat;lon;timestamp;temperature;humidity
64843;DHT22;51310;52.198;5.422;2023-04-08T00:01:52;6.70;99.90
64843;DHT22;51310;52.198;5.422;2023-04-08T00:04:18;6.70;99.90
64843;DHT22;51310;52.198;5.422;2023-04-08T00:06:44;6.70;99.90
64843;DHT22;51310;52.198;5.422;2023-04-08T00:09:10;6.70;99.90
64843;DHT22;51310;52.198;5.422;2023-04-08T00:11:36;6.70;99.90
64843;DHT22;51310;52.198;5.422;2023-04-08T00:14:02;6.70;99.90
64843;DHT22;51310;52.198;5.422;2023-04-08T00:16:28;6.70;99.90
64843;DHT22;51310;52.198;5.422;2023-04-08T00:18:54;6.70;99.90
64843;DHT22;51310;52.198;5.422;2023-04-08T00:21:21;6.70;99.90
64843;DHT22;51310;52.198;5.422;2023-04-08T00:23:47;6.70;99.90
64843;DHT22;51310;52.198;5.422;2023-04-08T00:26:14;6.70;99.90
64843;DHT22;51310;52.198;5.422;2023-04-08T00:28:40;6.60;99.90
64843;DHT22;51310;52.198;5.422;2023-04-08T00:31:07;6.60;99.90
64843;DHT22;51310;52.198;5.422;2023-04-08T00:33:32;6.60;99.90
64843;DHT22;51310;52.198;5.422;2023-04-08T00:35:58;6.50;99.90
64843;DHT22;51310;52.198;5.422;2023-04-08T00:38:24;6.50;99.90
64843;DHT22;51310;52.198;5.422;2023-04-08T00:40:49;6.50;99.90
64843;DHT22;51310;52.198;5.422;2023-04-08T00:43:15;6.40;99.90
64843;DHT22;51310;52.198;5.422;2023-04-08T00:45:45;6.40;99.90
64843;DHT22;51310;52.198;5.422;2023-04-08T00:48:11;6.40;99.90
64843;DHT22;51310;52.198;5.422;2023-04-08T00:50:37;6.30;99.90
64843;DHT22;51310;52.198;5.422;2023-04-08T00:53:03;6.30;99.90
64843;DHT22;51310;52.198;5.422;2023-04-08T00:55:29;6.30;99.90
64843;DHT22;51310;52.198;5.422;2023-04-08T00:57:55;6.30;99.90
64843;DHT22;51310;52.198;5.422;2023-04-08T01:00:22;6.20;99.90
64843;DHT22;51310;52.198;5.422;2023-04-08T01:03:16;6.20;99.90
64843;DHT22;51310;52.198;5.422;2023-04-08T01:06:05;6.10;99.90
64843;DHT22;51310;52.198;5.422;2023-04-08T01:08:34;6.00;99.90
64843;DHT22;51310;52.198;5.422;2023-04-08T01:11:05;6.00;99.90
64843;DHT22;51310;52.198;5.422;2023-04-08T01:13:36;6.00;99.90
64843;DHT22;51310;52.198;5.422;2023-04-08T01:16:07;6.00;99.90
64843;DHT22;51310;52.198;5.422;2023-04-08T01:18:35;6.00;99.90
64843;DHT22;51310;52.198;5.422;2023-04-08T01:21:03;6.00;99.90
64843;DHT22;51310;52.198;5.422;2023-04-08T01:26:22;6.00;99.90
64843;DHT22;51310;52.198;5.422;2023-04-08T01:28:52;6.00;99.90
64843;DHT22;51310;52.198;5.422;2023-04-08T01:31:21;6.00;99.90
64843;DHT22;51310;52.198;5.422;2023-04-08T01:33:50;6.00;99.90
64843;DHT22;51310;52.198;5.422;2023-04-08T01:36:18;6.00;99.90
64843;DHT22;51310;52.198;5.422;2023-04-08T01:38:46;6.00;99.90
64843;DHT22;51310;52.198;5.422;2023-04-08T01:41:13;5.90;99.90
64843;DHT22;51310;52.198;5.422;2023-04-08T01:43:42;5.90;99.90
64843;DHT22;51310;52.198;5.422;2023-04-08T01:46:10;5.90;99.90
64843;DHT22;51310;52.198;5.422;2023-04-08T01:48:39;5.90;99.90
64843;DHT22;51310;52.198;5.422;2023-04-08T01:51:06;5.90;99.90
64843;DHT22;51310;52.198;5.422;2023-04-08T01:53:33;5.90;99.90
64843;DHT22;51310;52.198;5.422;2023-04-08T01:56:10;5.80;99.90
64843;DHT22;51310;52.198;5.422;2023-04-08T01:58:41;5.90;99.90
64843;DHT22;51310;52.198;5.422;2023-04-08T02:01:13;6.00;99.90
64843;DHT22;51310;52.198;5.422;2023-04-08T02:03:43;6.00;99.90
64843;DHT22;51310;52.198;5.422;2023-04-08T02:06:11;6.00;99.90
64843;DHT22;51310;52.198;5.422;2023-04-08T02:08:36;6.00;99.90
64843;DHT22;51310;52.198;5.422;2023-04-08T02:11:02;6.00;99.90
64843;DHT22;51310;52.198;5.422;2023-04-08T02:13:29;6.00;99.90
64843;DHT22;51310;52.198;5.422;2023-04-08T02:16:03;6.00;99.90
64843;DHT22;51310;52.198;5.422;2023-04-08T02:18:38;6.00;99.90
64843;DHT22;51310;52.198;5.422;2023-04-08T02:21:14;6.00;99.90
64843;DHT22;51310;52.198;5.422;2023-04-08T02:23:42;6.00;99.90
64843;DHT22;51310;52.198;5.422;2023-04-08T02:26:13;6.00;99.90
64843;DHT22;51310;52.198;5.422;2023-04-08T02:28:41;6.00;99.90
64843;DHT22;51310;52.198;5.422;2023-04-08T02:31:11;6.00;99.90
64843;DHT22;51310;52.198;5.422;2023-04-08T02:33:39;6.00;99.90
64843;DHT22;51310;52.198;5.422;2023-04-08T02:36:06;6.10;99.90
64843;DHT22;51310;52.198;5.422;2023-04-08T02:38:33;6.10;99.90
64843;DHT22;51310;52.198;5.422;2023-04-08T02:40:58;6.10;99.90
64843;DHT22;51310;52.198;5.422;2023-04-08T02:43:24;6.00;99.90
64843;DHT22;51310;52.198;5.422;2023-04-08T02:45:57;6.00;99.90
64843;DHT22;51310;52.198;5.422;2023-04-08T02:48:28;6.00;99.90
64843;DHT22;51310;52.198;5.422;2023-04-08T02:50:55;6.00;99.90
64843;DHT22;51310;52.198;5.422;2023-04-08T02:53:22;5.90;99.90
64843;DHT22;51310;52.198;5.422;2023-04-08T02:55:48;5.80;99.90
64843;DHT22;51310;52.198;5.422;2023-04-08T02:58:14;5.80;99.90
64843;DHT22;51310;52.198;5.422;2023-04-08T03:00:40;5.70;99.90
64843;DHT22;51310;52.198;5.422;2023-04-08T03:03:06;5.60;99.90
64843;DHT22;51310;52.198;5.422;2023-04-08T03:05:32;5.50;99.90
64843;DHT22;51310;52.198;5.422;2023-04-08T03:07:57;5.30;99.90
64843;DHT22;51310;52.198;5.422;2023-04-08T03:10:23;5.30;99.90
64843;DHT22;51310;52.198;5.422;2023-04-08T03:12:49;5.20;99.90
64843;DHT22;51310;52.198;5.422;2023-04-08T03:15:15;5.10;99.90
64843;DHT22;51310;52.198;5.422;2023-04-08T03:17:41;5.00;99.90
64843;DHT22;51310;52.198;5.422;2023-04-08T03:20:07;5.00;99.90
64843;DHT22;51310;52.198;5.422;2023-04-08T03:22:34;4.90;99.90
64843;DHT22;51310;52.198;5.422;2023-04-08T03:25:00;4.70;99.90
64843;DHT22;51310;52.198;5.422;2023-04-08T03:27:26;4.70;99.90
64843;DHT22;51310;52.198;5.422;2023-04-08T03:29:52;4.50;99.90
64843;DHT22;51310;52.198;5.422;2023-04-08T03:32:18;4.50;99.90
64843;DHT22;51310;52.198;5.422;2023-04-08T03:34:44;4.40;99.90
64843;DHT22;51310;52.198;5.422;2023-04-08T03:37:10;4.30;99.90
64843;DHT22;51310;52.198;5.422;2023-04-08T03:39:37;4.20;99.90
64843;DHT22;51310;52.198;5.422;2023-04-08T03:42:03;4.10;99.90
64843;DHT22;51310;52.198;5.422;2023-04-08T03:44:28;4.00;99.90
64843;DHT22;51310;52.198;5.422;2023-04-08T03:46:54;3.90;99.90
64843;DHT22;51310;52.198;5.422;2023-04-08T03:49:20;3.80;99.90
64843;DHT22;51310;52.198;5.422;2023-04-08T03:51:46;3.70;99.90
64843;DHT22;51310;52.198;5.422;2023-04-08T03:54:11;3.60;99.90
64843;DHT22;51310;52.198;5.422;2023-04-08T03:56:37;3.50;99.90
64843;DHT22;51310;52.198;5.422;2023-04-08T03:59:03;3.50;99.90
64843;DHT22;51310;52.198;5.422;2023-04-08T04:01:28;3.30;99.90
64843;DHT22;51310;52.198;5.422;2023-04-08T04:03:56;3.30;99.90
64843;DHT22;51310;52.198;5.422;2023-04-08T04:06:23;3.10;99.90
64843;DHT22;51310;52.198;5.422;2023-04-08T04:08:48;3.10;99.90
64843;DHT22;51310;52.198;5.422;2023-04-08T04:11:15;3.00;99.90
64843;DHT22;51310;52.198;5.422;2023-04-08T04:13:40;3.00;99.90
64843;DHT22;51310;52.198;5.422;2023-04-08T04:16:06;2.90;99.90
64843;DHT22;51310;52.198;5.422;2023-04-08T04:18:32;2.90;99.90
64843;DHT22;51310;52.198;5.422;2023-04-08T04:20:58;2.80;99.90
64843;DHT22;51310;52.198;5.422;2023-04-08T04:23:23;2.70;99.90
64843;DHT22;51310;52.198;5.422;2023-04-08T04:25:50;2.70;99.90
64843;DHT22;51310;52.198;5.422;2023-04-08T04:28:16;2.70;99.90
64843;DHT22;51310;52.198;5.422;2023-04-08T04:30:41;2.50;99.90
64843;DHT22;51310;52.198;5.422;2023-04-08T04:33:07;2.50;99.90
64843;DHT22;51310;52.198;5.422;2023-04-08T04:35:33;2.50;99.90
64843;DHT22;51310;52.198;5.422;2023-04-08T04:37:58;2.50;99.90
64843;DHT22;51310;52.198;5.422;2023-04-08T04:40:24;2.40;99.90
64843;DHT22;51310;52.198;5.422;2023-04-08T04:42:50;2.40;99.90
64843;DHT22;51310;52.198;5.422;2023-04-08T04:45:16;2.30;99.90
64843;DHT22;51310;52.198;5.422;2023-04-08T04:47:41;2.30;99.90
64843;DHT22;51310;52.198;5.422;2023-04-08T04:50:07;2.20;99.90
64843;DHT22;51310;52.198;5.422;2023-04-08T04:52:35;2.20;99.90
64843;DHT22;51310;52.198;5.422;2023-04-08T04:55:01;2.20;99.90
64843;DHT22;51310;52.198;5.422;2023-04-08T04:57:27;2.20;99.90
64843;DHT22;51310;52.198;5.422;2023-04-08T04:59:52;2.10;99.90
64843;DHT22;51310;52.198;5.422;2023-04-08T05:02:18;2.10;99.90
64843;DHT22;51310;52.198;5.422;2023-04-08T05:04:44;2.10;99.90
64843;DHT22;51310;52.198;5.422;2023-04-08T05:07:09;2.00;99.90
64843;DHT22;51310;52.198;5.422;2023-04-08T05:09:35;2.00;99.90
64843;DHT22;51310;52.198;5.422;2023-04-08T05:12:01;2.00;99.90
64843;DHT22;51310;52.198;5.422;2023-04-08T05:14:29;2.00;99.90
64843;DHT22;51310;52.198;5.422;2023-04-08T05:16:55;2.00;99.90
64843;DHT22;51310;52.198;5.422;2023-04-08T05:19:22;2.00;99.90
64843;DHT22;51310;52.198;5.422;2023-04-08T05:21:47;2.00;99.90
64843;DHT22;51310;52.198;5.422;2023-04-08T05:24:13;2.10;99.90
64843;DHT22;51310;52.198;5.422;2023-04-08T05:26:39;2.20;99.90
64843;DHT22;51310;52.198;5.422;2023-04-08T05:29:05;2.20;99.90
64843;DHT22;51310;52.198;5.422;2023-04-08T05:31:30;2.20;99.90
64843;DHT22;51310;52.198;5.422;2023-04-08T05:33:56;2.30;99.90
64843;DHT22;51310;52.198;5.422;2023-04-08T05:36:22;2.40;99.90
64843;DHT22;51310;52.198;5.422;2023-04-08T05:38:47;2.50;99.90
64843;DHT22;51310;52.198;5.422;2023-04-08T05:41:13;2.50;99.90
64843;DHT22;51310;52.198;5.422;2023-04-08T05:43:39;2.60;99.90
64843;DHT22;51310;52.198;5.422;2023-04-08T05:46:09;2.70;99.90
64843;DHT22;51310;52.198;5.422;2023-04-08T05:48:35;2.70;99.90
64843;DHT22;51310;52.198;5.422;2023-04-08T05:51:01;2.70;99.90
64843;DHT22;51310;52.198;5.422;2023-04-08T05:53:27;2.70;99.90
64843;DHT22;51310;52.198;5.422;2023-04-08T05:55:53;2.70;99.90
64843;DHT22;51310;52.198;5.422;2023-04-08T05:58:19;2.80;99.90
64843;DHT22;51310;52.198;5.422;2023-04-08T06:00:45;2.80;99.90
64843;DHT22;51310;52.198;5.422;2023-04-08T06:03:10;2.80;99.90
64843;DHT22;51310;52.198;5.422;2023-04-08T06:05:36;2.70;99.90
64843;DHT22;51310;52.198;5.422;2023-04-08T06:08:02;2.70;99.90
64843;DHT22;51310;52.198;5.422;2023-04-08T06:10:27;2.70;99.90
64843;DHT22;51310;52.198;5.422;2023-04-08T06:12:53;2.70;99.90
64843;DHT22;51310;52.198;5.422;2023-04-08T06:15:19;2.70;99.90
64843;DHT22;51310;52.198;5.422;2023-04-08T06:17:45;2.70;99.90
64843;DHT22;51310;52.198;5.422;2023-04-08T06:20:11;2.70;99.90
64843;DHT22;51310;52.198;5.422;2023-04-08T06:22:37;2.70;99.90
64843;DHT22;51310;52.198;5.422;2023-04-08T06:25:03;2.70;99.90
64843;DHT22;51310;52.198;5.422;2023-04-08T06:27:29;2.80;99.90
64843;DHT22;51310;52.198;5.422;2023-04-08T06:29:55;2.80;99.90
64843;DHT22;51310;52.198;5.422;2023-04-08T06:32:21;2.90;99.90
64843;DHT22;51310;52.198;5.422;2023-04-08T06:34:47;2.90;99.90
64843;DHT22;51310;52.198;5.422;2023-04-08T06:37:13;3.00;99.90
64843;DHT22;51310;52.198;5.422;2023-04-08T06:39:39;3.00;99.90
64843;DHT22;51310;52.198;5.422;2023-04-08T06:42:05;3.00;99.90
64843;DHT22;51310;52.198;5.422;2023-04-08T06:44:31;3.10;99.90
64843;DHT22;51310;52.198;5.422;2023-04-08T06:46:56;3.10;99.90
64843;DHT22;51310;52.198;5.422;2023-04-08T06:49:22;3.10;99.90
64843;DHT22;51310;52.198;5.422;2023-04-08T06:51:48;3.20;99.90
64843;DHT22;51310;52.198;5.422;2023-04-08T06:54:14;3.30;99.90
64843;DHT22;51310;52.198;5.422;2023-04-08T06:56:40;3.30;99.90
64843;DHT22;51310;52.198;5.422;2023-04-08T06:59:06;3.30;99.90
64843;DHT22;51310;52.198;5.422;2023-04-08T07:01:31;3.50;99.90
64843;DHT22;51310;52.198;5.422;2023-04-08T07:03:57;3.50;99.90
64843;DHT22;51310;52.198;5.422;2023-04-08T07:06:23;3.60;99.90
64843;DHT22;51310;52.198;5.422;2023-04-08T07:08:49;3.60;99.90
64843;DHT22;51310;52.198;5.422;2023-04-08T07:11:15;3.70;99.90
64843;DHT22;51310;52.198;5.422;2023-04-08T07:13:41;3.80;99.90
64843;DHT22;51310;52.198;5.422;2023-04-08T07:16:06;3.90;99.90
64843;DHT22;51310;52.198;5.422;2023-04-08T07:18:32;3.90;99.90
64843;DHT22;51310;52.198;5.422;2023-04-08T07:20:58;3.90;99.90
64843;DHT22;51310;52.198;5.422;2023-04-08T07:23:26;4.00;99.90
64843;DHT22;51310;52.198;5.422;2023-04-08T07:25:52;4.10;99.90
64843;DHT22;51310;52.198;5.422;2023-04-08T07:28:18;4.10;99.90
64843;DHT22;51310;52.198;5.422;2023-04-08T07:30:45;4.20;99.90
64843;DHT22;51310;52.198;5.422;2023-04-08T07:33:11;4.30;99.90
64843;DHT22;51310;52.198;5.422;2023-04-08T07:35:37;4.40;99.90
64843;DHT22;51310;52.198;5.422;2023-04-08T07:38:03;4.50;99.90
64843;DHT22;51310;52.198;5.422;2023-04-08T07:40:28;4.50;99.90
64843;DHT22;51310;52.198;5.422;2023-04-08T07:42:54;4.60;99.90
64843;DHT22;51310;52.198;5.422;2023-04-08T07:45:20;4.70;99.90
64843;DHT22;51310;52.198;5.422;2023-04-08T07:47:46;4.80;99.90
64843;DHT22;51310;52.198;5.422;2023-04-08T07:50:12;4.80;99.90
64843;DHT22;51310;52.198;5.422;2023-04-08T07:52:38;4.90;99.90
64843;DHT22;51310;52.198;5.422;2023-04-08T07:55:04;5.00;99.90
64843;DHT22;51310;52.198;5.422;2023-04-08T07:57:31;5.00;99.90
64843;DHT22;51310;52.198;5.422;2023-04-08T07:59:57;5.10;99.90
64843;DHT22;51310;52.198;5.422;2023-04-08T08:02:22;5.10;99.90
64843;DHT22;51310;52.198;5.422;2023-04-08T08:04:48;5.20;99.90
64843;DHT22;51310;52.198;5.422;2023-04-08T08:07:14;5.30;99.90
64843;DHT22;51310;52.198;5.422;2023-04-08T08:09:40;5.40;99.90
64843;DHT22;51310;52.198;5.422;2023-04-08T08:12:06;5.50;99.90
64843;DHT22;51310;52.198;5.422;2023-04-08T08:14:31;5.60;99.90
64843;DHT22;51310;52.198;5.422;2023-04-08T08:16:57;5.70;99.90
64843;DHT22;51310;52.198;5.422;2023-04-08T08:19:23;5.80;99.90
64843;DHT22;51310;52.198;5.422;2023-04-08T08:21:49;5.90;99.90
64843;DHT22;51310;52.198;5.422;2023-04-08T08:24:15;6.00;99.90
64843;DHT22;51310;52.198;5.422;2023-04-08T08:26:41;6.10;99.90
64843;DHT22;51310;52.198;5.422;2023-04-08T08:29:09;6.10;99.90
64843;DHT22;51310;52.198;5.422;2023-04-08T08:31:35;6.10;99.90
64843;DHT22;51310;52.198;5.422;2023-04-08T08:34:00;6.20;99.90
64843;DHT22;51310;52.198;5.422;2023-04-08T08:36:26;6.30;99.90
64843;DHT22;51310;52.198;5.422;2023-04-08T08:38:52;6.30;99.90
64843;DHT22;51310;52.198;5.422;2023-04-08T08:41:19;6.30;99.90
64843;DHT22;51310;52.198;5.422;2023-04-08T08:43:45;6.30;99.90
64843;DHT22;51310;52.198;5.422;2023-04-08T08:46:15;6.30;99.90
64843;DHT22;51310;52.198;5.422;2023-04-08T08:48:43;6.40;99.90
64843;DHT22;51310;52.198;5.422;2023-04-08T08:51:10;6.50;99.90
64843;DHT22;51310;52.198;5.422;2023-04-08T08:53:36;6.50;99.90
64843;DHT22;51310;52.198;5.422;2023-04-08T08:56:03;6.60;99.90
64843;DHT22;51310;52.198;5.422;2023-04-08T08:58:29;6.60;99.90
64843;DHT22;51310;52.198;5.422;2023-04-08T09:00:55;6.70;99.90
64843;DHT22;51310;52.198;5.422;2023-04-08T09:03:23;6.70;99.90
64843;DHT22;51310;52.198;5.422;2023-04-08T09:05:59;6.80;99.90
64843;DHT22;51310;52.198;5.422;2023-04-08T09:08:36;6.90;99.90
64843;DHT22;51310;52.198;5.422;2023-04-08T09:11:18;7.00;99.90
64843;DHT22;51310;52.198;5.422;2023-04-08T09:13:46;7.00;99.90
64843;DHT22;51310;52.198;5.422;2023-04-08T09:16:14;7.10;99.90
64843;DHT22;51310;52.198;5.422;2023-04-08T09:18:43;7.20;99.90
64843;DHT22;51310;52.198;5.422;2023-04-08T09:21:11;7.30;99.90
64843;DHT22;51310;52.198;5.422;2023-04-08T09:23:42;7.40;99.90
64843;DHT22;51310;52.198;5.422;2023-04-08T09:26:22;7.50;99.90
64843;DHT22;51310;52.198;5.422;2023-04-08T09:31:25;7.50;99.90
64843;DHT22;51310;52.198;5.422;2023-04-08T09:33:55;7.60;99.90
64843;DHT22;51310;52.198;5.422;2023-04-08T09:36:22;7.80;99.90
64843;DHT22;51310;52.198;5.422;2023-04-08T09:38:48;7.80;99.90
64843;DHT22;51310;52.198;5.422;2023-04-08T09:41:15;7.80;99.90
64843;DHT22;51310;52.198;5.422;2023-04-08T09:43:47;8.00;99.90
64843;DHT22;51310;52.198;5.422;2023-04-08T09:46:15;8.10;99.90
64843;DHT22;51310;52.198;5.422;2023-04-08T09:48:48;8.10;99.90
64843;DHT22;51310;52.198;5.422;2023-04-08T09:51:21;8.10;99.90
64843;DHT22;51310;52.198;5.422;2023-04-08T09:53:58;8.20;99.90
64843;DHT22;51310;52.198;5.422;2023-04-08T09:56:30;8.20;99.90
64843;DHT22;51310;52.198;5.422;2023-04-08T09:59:13;8.30;99.90
64843;DHT22;51310;52.198;5.422;2023-04-08T10:01:51;8.40;99.90
64843;DHT22;51310;52.198;5.422;2023-04-08T10:04:21;8.50;99.90
64843;DHT22;51310;52.198;5.422;2023-04-08T10:07:03;8.70;99.90
64843;DHT22;51310;52.198;5.422;2023-04-08T10:09:32;8.80;99.90
64843;DHT22;51310;52.198;5.422;2023-04-08T10:11:58;8.90;99.90
64843;DHT22;51310;52.198;5.422;2023-04-08T10:14:25;9.00;99.90
64843;DHT22;51310;52.198;5.422;2023-04-08T10:17:25;9.00;99.90
64843;DHT22;51310;52.198;5.422;2023-04-08T10:19:53;9.00;99.90
64843;DHT22;51310;52.198;5.422;2023-04-08T10:22:44;9.10;99.90
64843;DHT22;51310;52.198;5.422;2023-04-08T10:27:43;9.30;99.90
64843;DHT22;51310;52.198;5.422;2023-04-08T10:32:56;9.50;99.90
64843;DHT22;51310;52.198;5.422;2023-04-08T10:35:35;9.60;99.90
64843;DHT22;51310;52.198;5.422;2023-04-08T10:38:01;9.70;99.90
64843;DHT22;51310;52.198;5.422;2023-04-08T10:40:31;9.80;99.90
64843;DHT22;51310;52.198;5.422;2023-04-08T10:43:03;10.00;99.90
64843;DHT22;51310;52.198;5.422;2023-04-08T10:45:33;10.00;99.90
64843;DHT22;51310;52.198;5.422;2023-04-08T10:50:38;10.00;99.90
64843;DHT22;51310;52.198;5.422;2023-04-08T10:53:05;10.00;99.90
64843;DHT22;51310;52.198;5.422;2023-04-08T10:55:32;10.00;99.90
64843;DHT22;51310;52.198;5.422;2023-04-08T10:58:08;10.00;99.90
64843;DHT22;51310;52.198;5.422;2023-04-08T11:00:39;10.00;99.90
64843;DHT22;51310;52.198;5.422;2023-04-08T11:03:06;10.10;68.70
64843;DHT22;51310;52.198;5.422;2023-04-08T11:05:34;10.10;67.50
64843;DHT22;51310;52.198;5.422;2023-04-08T11:08:04;10.30;67.50
64843;DHT22;51310;52.198;5.422;2023-04-08T11:10:36;10.30;67.60
64843;DHT22;51310;52.198;5.422;2023-04-08T11:13:08;10.40;63.40
64843;DHT22;51310;52.198;5.422;2023-04-08T11:15:37;10.50;65.10
64843;DHT22;51310;52.198;5.422;2023-04-08T11:18:04;10.60;60.00
64843;DHT22;51310;52.198;5.422;2023-04-08T11:20:31;10.70;55.30
64843;DHT22;51310;52.198;5.422;2023-04-08T11:23:01;10.70;56.50
64843;DHT22;51310;52.198;5.422;2023-04-08T11:25:28;10.80;57.10
64843;DHT22;51310;52.198;5.422;2023-04-08T11:27:54;10.90;58.20
64843;DHT22;51310;52.198;5.422;2023-04-08T11:30:20;11.10;58.80
64843;DHT22;51310;52.198;5.422;2023-04-08T11:32:47;11.20;59.20
64843;DHT22;51310;52.198;5.422;2023-04-08T11:35:15;11.40;57.60
64843;DHT22;51310;52.198;5.422;2023-04-08T11:37:41;11.50;57.20
64843;DHT22;51310;52.198;5.422;2023-04-08T11:40:11;11.50;57.00
64843;DHT22;51310;52.198;5.422;2023-04-08T11:42:38;11.60;56.60
64843;DHT22;51310;52.198;5.422;2023-04-08T11:45:12;11.60;57.40
64843;DHT22;51310;52.198;5.422;2023-04-08T11:47:39;11.70;58.60
64843;DHT22;51310;52.198;5.422;2023-04-08T11:50:05;11.70;57.20
64843;DHT22;51310;52.198;5.422;2023-04-08T11:52:46;11.70;59.40
64843;DHT22;51310;52.198;5.422;2023-04-08T11:55:29;11.70;60.00
64843;DHT22;51310;52.198;5.422;2023-04-08T11:58:02;11.80;57.30
64843;DHT22;51310;52.198;5.422;2023-04-08T12:00:29;11.80;55.00
64843;DHT22;51310;52.198;5.422;2023-04-08T12:02:55;11.70;56.90
64843;DHT22;51310;52.198;5.422;2023-04-08T12:05:21;11.70;54.70
64843;DHT22;51310;52.198;5.422;2023-04-08T12:07:47;11.70;55.40
64843;DHT22;51310;52.198;5.422;2023-04-08T12:10:13;11.60;55.10
64843;DHT22;51310;52.198;5.422;2023-04-08T12:12:39;11.50;56.40
64843;DHT22;51310;52.198;5.422;2023-04-08T12:15:06;11.50;57.40
64843;DHT22;51310;52.198;5.422;2023-04-08T12:17:33;11.60;58.70
64843;DHT22;51310;52.198;5.422;2023-04-08T12:20:00;11.70;57.10
64843;DHT22;51310;52.198;5.422;2023-04-08T12:22:26;11.90;56.80
64843;DHT22;51310;52.198;5.422;2023-04-08T12:24:52;11.90;55.90
64843;DHT22;51310;52.198;5.422;2023-04-08T12:27:17;11.90;57.80
64843;DHT22;51310;52.198;5.422;2023-04-08T12:29:43;11.90;57.30
64843;DHT22;51310;52.198;5.422;2023-04-08T12:32:10;12.00;56.90
64843;DHT22;51310;52.198;5.422;2023-04-08T12:34:36;12.20;55.90
64843;DHT22;51310;52.198;5.422;2023-04-08T12:37:02;12.30;56.10
64843;DHT22;51310;52.198;5.422;2023-04-08T12:39:27;12.20;56.40
64843;DHT22;51310;52.198;5.422;2023-04-08T12:41:53;12.30;56.60
64843;DHT22;51310;52.198;5.422;2023-04-08T12:44:19;12.50;56.10
64843;DHT22;51310;52.198;5.422;2023-04-08T12:46:45;12.70;55.50
64843;DHT22;51310;52.198;5.422;2023-04-08T12:49:11;12.80;54.90
64843;DHT22;51310;52.198;5.422;2023-04-08T12:51:37;12.80;54.80
64843;DHT22;51310;52.198;5.422;2023-04-08T12:54:03;12.70;55.50
64843;DHT22;51310;52.198;5.422;2023-04-08T12:56:30;12.60;56.40
64843;DHT22;51310;52.198;5.422;2023-04-08T12:58:56;12.50;56.80
64843;DHT22;51310;52.198;5.422;2023-04-08T13:01:23;12.50;57.60
64843;DHT22;51310;52.198;5.422;2023-04-08T13:03:49;12.50;58.00
64843;DHT22;51310;52.198;5.422;2023-04-08T13:06:15;12.40;58.00
64843;DHT22;51310;52.198;5.422;2023-04-08T13:08:41;12.30;57.70
64843;DHT22;51310;52.198;5.422;2023-04-08T13:11:07;12.40;57.60
64843;DHT22;51310;52.198;5.422;2023-04-08T13:13:33;12.50;58.20
64843;DHT22;51310;52.198;5.422;2023-04-08T13:15:59;12.50;58.60
64843;DHT22;51310;52.198;5.422;2023-04-08T13:18:25;12.50;57.10
64843;DHT22;51310;52.198;5.422;2023-04-08T13:20:51;12.50;56.40
64843;DHT22;51310;52.198;5.422;2023-04-08T13:23:18;12.50;56.30
64843;DHT22;51310;52.198;5.422;2023-04-08T13:25:45;12.50;57.20
64843;DHT22;51310;52.198;5.422;2023-04-08T13:28:11;12.50;55.90
64843;DHT22;51310;52.198;5.422;2023-04-08T13:30:37;12.50;56.10
64843;DHT22;51310;52.198;5.422;2023-04-08T13:33:03;12.40;55.10
64843;DHT22;51310;52.198;5.422;2023-04-08T13:35:29;12.40;56.30
64843;DHT22;51310;52.198;5.422;2023-04-08T13:37:55;12.50;56.40
64843;DHT22;51310;52.198;5.422;2023-04-08T13:40:20;12.50;56.80
64843;DHT22;51310;52.198;5.422;2023-04-08T13:42:46;12.50;57.20
64843;DHT22;51310;52.198;5.422;2023-04-08T13:45:13;12.50;56.30
64843;DHT22;51310;52.198;5.422;2023-04-08T13:47:39;12.40;55.50
64843;DHT22;51310;52.198;5.422;2023-04-08T13:50:08;12.20;57.40
64843;DHT22;51310;52.198;5.422;2023-04-08T13:52:34;12.20;57.30
64843;DHT22;51310;52.198;5.422;2023-04-08T13:55:00;12.20;56.70
64843;DHT22;51310;52.198;5.422;2023-04-08T13:57:25;12.20;57.60
64843;DHT22;51310;52.198;5.422;2023-04-08T13:59:51;12.20;57.90
64843;DHT22;51310;52.198;5.422;2023-04-08T14:02:17;12.30;57.30
64843;DHT22;51310;52.198;5.422;2023-04-08T14:04:42;12.40;57.40
64843;DHT22;51310;52.198;5.422;2023-04-08T14:07:13;12.30;58.30
64843;DHT22;51310;52.198;5.422;2023-04-08T14:09:38;12.30;58.00
64843;DHT22;51310;52.198;5.422;2023-04-08T14:12:05;12.30;58.90
64843;DHT22;51310;52.198;5.422;2023-04-08T14:14:30;12.20;58.10
64843;DHT22;51310;52.198;5.422;2023-04-08T14:16:56;12.10;57.90
64843;DHT22;51310;52.198;5.422;2023-04-08T14:19:22;12.00;58.70
64843;DHT22;51310;52.198;5.422;2023-04-08T14:21:48;12.00;59.00
64843;DHT22;51310;52.198;5.422;2023-04-08T14:24:14;11.90;59.10
64843;DHT22;51310;52.198;5.422;2023-04-08T14:26:40;12.00;59.80
64843;DHT22;51310;52.198;5.422;2023-04-08T14:29:06;12.00;60.00
64843;DHT22;51310;52.198;5.422;2023-04-08T14:31:33;12.00;60.30
64843;DHT22;51310;52.198;5.422;2023-04-08T14:34:00;12.00;60.60
64843;DHT22;51310;52.198;5.422;2023-04-08T14:36:26;12.00;58.70
64843;DHT22;51310;52.198;5.422;2023-04-08T14:38:53;11.90;56.00
64843;DHT22;51310;52.198;5.422;2023-04-08T14:41:20;11.90;57.30
64843;DHT22;51310;52.198;5.422;2023-04-08T14:43:46;11.90;58.60
64843;DHT22;51310;52.198;5.422;2023-04-08T14:46:13;12.00;58.30
64843;DHT22;51310;52.198;5.422;2023-04-08T14:48:38;12.00;56.10
64843;DHT22;51310;52.198;5.422;2023-04-08T14:51:05;12.00;55.80
64843;DHT22;51310;52.198;5.422;2023-04-08T14:53:31;12.10;57.10
64843;DHT22;51310;52.198;5.422;2023-04-08T14:55:58;12.10;58.00
64843;DHT22;51310;52.198;5.422;2023-04-08T14:58:24;12.20;57.70
64843;DHT22;51310;52.198;5.422;2023-04-08T15:00:50;12.20;57.80
64843;DHT22;51310;52.198;5.422;2023-04-08T15:03:16;12.20;57.30
64843;DHT22;51310;52.198;5.422;2023-04-08T15:05:43;12.20;56.80
64843;DHT22;51310;52.198;5.422;2023-04-08T15:08:10;12.20;56.50
64843;DHT22;51310;52.198;5.422;2023-04-08T15:10:36;12.30;56.60
64843;DHT22;51310;52.198;5.422;2023-04-08T15:13:02;12.40;54.30
64843;DHT22;51310;52.198;5.422;2023-04-08T15:15:28;12.40;52.10
64843;DHT22;51310;52.198;5.422;2023-04-08T15:17:54;12.40;50.90
64843;DHT22;51310;52.198;5.422;2023-04-08T15:20:19;12.50;50.60
64843;DHT22;51310;52.198;5.422;2023-04-08T15:22:45;12.40;51.40
64843;DHT22;51310;52.198;5.422;2023-04-08T15:25:12;12.40;51.40
64843;DHT22;51310;52.198;5.422;2023-04-08T15:27:38;12.40;50.40
64843;DHT22;51310;52.198;5.422;2023-04-08T15:30:06;12.30;51.30
64843;DHT22;51310;52.198;5.422;2023-04-08T15:32:32;12.30;52.00
64843;DHT22;51310;52.198;5.422;2023-04-08T15:34:58;12.30;52.20
64843;DHT22;51310;52.198;5.422;2023-04-08T15:37:25;12.30;52.60
64843;DHT22;51310;52.198;5.422;2023-04-08T15:39:51;12.30;53.30
64843;DHT22;51310;52.198;5.422;2023-04-08T15:42:20;12.40;53.90
64843;DHT22;51310;52.198;5.422;2023-04-08T15:44:46;12.50;53.90
64843;DHT22;51310;52.198;5.422;2023-04-08T15:47:13;12.50;54.10
64843;DHT22;51310;52.198;5.422;2023-04-08T15:49:38;12.50;54.30
64843;DHT22;51310;52.198;5.422;2023-04-08T15:52:05;12.50;54.50
64843;DHT22;51310;52.198;5.422;2023-04-08T15:54:32;12.60;54.70